createdAt,value
2023-04-03T00:01:08.854Z,0.80
2023-04-03T00:03:36.660Z,0.80
2023-04-03T00:06:06.700Z,1.00
2023-04-03T00:08:33.951Z,0.67
2023-04-03T00:11:01.271Z,0.50
2023-04-03T00:13:28.324Z,0.80
2023-04-03T00:15:55.826Z,0.70
2023-04-03T00:18:23.209Z,0.50
2023-04-03T00:20:50.917Z,0.70
2023-04-03T00:23:17.897Z,0.50
2023-04-03T00:25:45.275Z,0.60
2023-04-03T00:28:12.557Z,0.60
2023-04-03T00:30:40.127Z,0.70
2023-04-03T00:33:07.441Z,0.80
2023-04-03T00:35:35.670Z,0.90
2023-04-03T00:38:02.753Z,0.80
2023-04-03T00:40:36.298Z,0.60
2023-04-03T00:43:22.407Z,0.63
2023-04-03T00:46:00.415Z,0.60
2023-04-03T00:48:31.581Z,0.70
2023-04-03T00:51:00.483Z,0.77
2023-04-03T00:53:31.781Z,0.50
2023-04-03T00:56:00.007Z,0.60
2023-04-03T00:58:34.795Z,0.50
2023-04-03T01:01:06.347Z,0.60
2023-04-03T01:03:33.854Z,0.80
2023-04-03T01:06:04.089Z,0.63
2023-04-03T01:08:31.473Z,0.80
2023-04-03T01:10:59.363Z,0.83
2023-04-03T01:13:31.298Z,0.60
2023-04-03T01:16:03.216Z,0.90
2023-04-03T01:18:31.294Z,0.70
2023-04-03T01:21:13.790Z,0.50
2023-04-03T01:23:54.532Z,0.73
2023-04-03T01:26:23.048Z,0.80
2023-04-03T01:28:50.066Z,0.50
2023-04-03T01:31:27.091Z,0.67
2023-04-03T01:33:56.312Z,0.50
2023-04-03T01:36:26.668Z,0.60
2023-04-03T01:38:55.973Z,0.60
2023-04-03T01:41:24.257Z,0.70
2023-04-03T01:43:54.542Z,0.60
2023-04-03T01:46:22.516Z,0.70
2023-04-03T01:48:49.859Z,0.60
2023-04-03T01:51:17.257Z,0.70
2023-04-03T01:53:44.310Z,0.60
2023-04-03T01:56:11.633Z,0.50
2023-04-03T01:58:39.539Z,0.87
2023-04-03T02:01:07.134Z,0.77
2023-04-03T02:03:34.331Z,0.53
2023-04-03T02:06:02.143Z,0.50
2023-04-03T02:08:29.270Z,0.67
2023-04-03T02:10:56.602Z,0.60
2023-04-03T02:13:23.636Z,0.50
2023-04-03T02:15:50.999Z,0.70
2023-04-03T02:18:18.316Z,0.70
2023-04-03T02:20:48.365Z,0.77
2023-04-03T02:23:15.451Z,0.50
2023-04-03T02:25:42.752Z,0.43
2023-04-03T02:28:09.764Z,0.60
2023-04-03T02:30:37.259Z,0.57
2023-04-03T02:33:05.389Z,0.80
2023-04-03T02:35:32.714Z,0.60
2023-04-03T02:38:00.070Z,0.70
2023-04-03T02:40:27.516Z,0.50
2023-04-03T02:42:54.788Z,0.73
2023-04-03T02:45:24.502Z,0.60
2023-04-03T02:47:51.560Z,0.50
2023-04-03T02:50:18.922Z,0.70
2023-04-03T02:52:45.934Z,0.93
2023-04-03T02:55:16.935Z,0.53
2023-04-03T02:57:45.328Z,0.43
2023-04-03T03:00:14.373Z,0.70
2023-04-03T03:02:41.778Z,0.57
2023-04-03T03:05:09.466Z,0.63
2023-04-03T03:07:36.485Z,0.60
2023-04-03T03:10:04.064Z,0.40
2023-04-03T03:12:32.641Z,0.50
2023-04-03T03:15:00.946Z,0.60
2023-04-03T03:17:28.260Z,0.60
2023-04-03T03:19:55.518Z,0.40
2023-04-03T03:22:22.526Z,0.60
2023-04-03T03:24:49.804Z,0.60
2023-04-03T03:27:17.192Z,0.60
2023-04-03T03:29:44.693Z,0.70
2023-04-03T03:32:13.339Z,0.60
2023-04-03T03:34:40.848Z,0.60
2023-04-03T03:37:07.913Z,0.57
2023-04-03T03:39:35.533Z,0.67
2023-04-03T03:42:02.513Z,0.57
2023-04-03T03:44:32.692Z,1.87
2023-04-03T03:47:00.005Z,0.70
2023-04-03T03:49:27.423Z,0.50
2023-04-03T03:51:54.463Z,0.50
2023-04-03T03:54:22.013Z,0.80
2023-04-03T03:56:49.678Z,0.50
2023-04-03T03:59:17.649Z,0.50
2023-04-03T04:01:46.010Z,0.63
2023-04-03T04:04:13.829Z,0.60
2023-04-03T04:06:40.977Z,0.50
2023-04-03T04:09:11.244Z,1.30
2023-04-03T04:11:38.313Z,4.00
2023-04-03T04:14:05.652Z,2.80
2023-04-03T04:16:32.734Z,1.40
2023-04-03T04:19:07.606Z,0.90
2023-04-03T04:21:36.799Z,0.60
2023-04-03T04:24:05.186Z,1.10
2023-04-03T04:26:32.535Z,0.80
2023-04-03T04:28:59.996Z,0.93
2023-04-03T04:31:28.027Z,0.67
2023-04-03T04:33:55.820Z,0.50
2023-04-03T04:36:23.222Z,0.83
2023-04-03T04:38:53.759Z,0.53
2023-04-03T04:41:23.411Z,0.60
2023-04-03T04:43:52.519Z,0.77
2023-04-03T04:46:19.802Z,0.50
2023-04-03T04:48:52.270Z,0.53
2023-04-03T04:51:21.668Z,0.70
2023-04-03T04:53:48.944Z,0.87
2023-04-03T04:56:18.604Z,0.60
2023-04-03T04:58:46.841Z,0.53
2023-04-03T05:01:13.971Z,0.73
2023-04-03T05:03:50.433Z,0.60
2023-04-03T05:06:18.713Z,0.60
2023-04-03T05:08:46.649Z,0.80
2023-04-03T05:11:13.996Z,0.60
2023-04-03T05:13:42.520Z,0.80
2023-04-03T05:16:09.610Z,0.70
2023-04-03T05:18:37.168Z,0.67
2023-04-03T05:21:09.265Z,0.80
2023-04-03T05:23:37.309Z,1.17
2023-04-03T05:26:05.261Z,0.60
2023-04-03T05:28:33.327Z,0.67
2023-04-03T05:31:00.917Z,0.97
2023-04-03T05:33:34.033Z,0.90
2023-04-03T05:36:06.584Z,1.00
2023-04-03T05:38:38.661Z,0.70
2023-04-03T05:41:06.716Z,0.70
2023-04-03T05:43:38.731Z,0.77
2023-04-03T05:46:18.993Z,0.80
2023-04-03T05:48:50.138Z,0.70
2023-04-03T05:51:24.875Z,0.50
2023-04-03T05:54:00.359Z,0.57
2023-04-03T05:56:27.748Z,0.80
2023-04-03T05:58:55.042Z,0.80
2023-04-03T06:01:22.791Z,0.60
2023-04-03T06:03:50.370Z,0.53
2023-04-03T06:06:17.583Z,0.70
2023-04-03T06:08:45.637Z,0.60
2023-04-03T06:11:12.832Z,0.60
2023-04-03T06:13:40.402Z,0.70
2023-04-03T06:16:07.537Z,1.00
2023-04-03T06:18:34.853Z,0.80
2023-04-03T06:21:03.789Z,0.60
2023-04-03T06:23:31.526Z,0.83
2023-04-03T06:25:58.558Z,0.90
2023-04-03T06:28:27.327Z,1.10
2023-04-03T06:30:54.675Z,0.90
2023-04-03T06:33:22.110Z,0.90
2023-04-03T06:35:49.113Z,0.90
2023-04-03T06:38:16.522Z,0.60
2023-04-03T06:40:44.827Z,0.60
2023-04-03T06:43:15.391Z,0.70
2023-04-03T06:45:42.510Z,0.50
2023-04-03T06:48:10.279Z,0.70
2023-04-03T06:50:37.408Z,0.97
2023-04-03T06:53:04.826Z,0.80
2023-04-03T06:55:32.709Z,0.70
2023-04-03T06:58:00.232Z,0.73
2023-04-03T07:00:27.299Z,0.57
2023-04-03T07:02:54.978Z,0.80
2023-04-03T07:05:22.433Z,1.10
2023-04-03T07:07:50.870Z,1.23
2023-04-03T07:10:18.420Z,0.80
2023-04-03T07:12:45.719Z,0.77
2023-04-03T07:15:13.961Z,0.70
2023-04-03T07:17:41.793Z,1.13
2023-04-03T07:20:09.646Z,0.70
2023-04-03T07:22:37.088Z,0.80
2023-04-03T07:25:05.500Z,0.90
2023-04-03T07:27:32.947Z,1.13
2023-04-03T07:29:59.963Z,0.60
2023-04-03T07:32:27.553Z,0.70
2023-04-03T07:34:54.566Z,0.60
2023-04-03T07:37:21.857Z,1.00
2023-04-03T07:39:49.697Z,0.80
2023-04-03T07:42:17.584Z,0.80
2023-04-03T07:44:44.727Z,0.57
2023-04-03T07:47:12.049Z,0.50
2023-04-03T07:49:40.733Z,0.70
2023-04-03T07:52:09.715Z,1.00
2023-04-03T07:54:36.996Z,0.80
2023-04-03T07:57:04.349Z,0.80
2023-04-03T07:59:31.641Z,0.87
2023-04-03T08:01:58.984Z,0.70
2023-04-03T08:04:27.232Z,0.87
2023-04-03T08:06:54.559Z,0.60
2023-04-03T08:09:21.532Z,0.73
2023-04-03T08:11:48.874Z,0.70
2023-04-03T08:14:19.648Z,0.60
2023-04-03T08:16:48.686Z,0.60
2023-04-03T08:19:26.024Z,0.90
2023-04-03T08:21:57.829Z,0.70
2023-04-03T08:24:25.571Z,0.60
2023-04-03T08:26:52.870Z,0.80
2023-04-03T08:29:19.920Z,0.83
2023-04-03T08:31:47.411Z,0.73
2023-04-03T08:34:15.756Z,0.80
2023-04-03T08:36:43.412Z,0.70
2023-04-03T08:39:11.550Z,0.70
2023-04-03T08:41:44.909Z,0.53
2023-04-03T08:44:37.514Z,0.70
2023-04-03T08:47:29.142Z,0.60
2023-04-03T08:50:01.657Z,0.73
2023-04-03T08:52:46.428Z,0.50
2023-04-03T08:55:33.218Z,0.73
2023-04-03T08:58:04.632Z,0.60
2023-04-03T09:00:52.817Z,0.57
2023-04-03T09:03:21.920Z,0.63
2023-04-03T09:06:01.416Z,0.70
2023-04-03T09:08:32.463Z,0.70
2023-04-03T09:11:21.778Z,0.60
2023-04-03T09:13:55.834Z,0.60
2023-04-03T09:16:44.652Z,0.50
2023-04-03T09:19:33.825Z,0.70
2023-04-03T09:22:20.070Z,0.60
2023-04-03T09:25:10.064Z,0.73
2023-04-03T09:27:37.364Z,0.57
2023-04-03T09:30:05.076Z,0.70
2023-04-03T09:32:35.390Z,0.57
2023-04-03T09:35:23.462Z,0.50
2023-04-03T09:38:03.104Z,0.60
2023-04-03T09:40:35.314Z,1.10
2023-04-03T09:43:19.973Z,0.60
2023-04-03T09:45:48.949Z,0.60
2023-04-03T09:48:17.142Z,0.50
2023-04-03T09:50:57.272Z,0.63
2023-04-03T09:53:42.841Z,0.70
2023-04-03T09:56:22.893Z,0.57
2023-04-03T09:59:00.737Z,0.60
2023-04-03T10:01:32.882Z,0.50
2023-04-03T10:04:14.225Z,2.07
2023-04-03T10:06:47.786Z,0.67
2023-04-03T10:09:23.835Z,0.50
2023-04-03T10:12:13.288Z,0.70
2023-04-03T10:15:03.133Z,0.73
2023-04-03T10:17:52.606Z,0.60
2023-04-03T10:20:35.103Z,0.50
2023-04-03T10:23:25.610Z,0.70
2023-04-03T10:25:58.331Z,0.50
2023-04-03T10:29:04.424Z,0.50
2023-04-03T10:31:40.341Z,0.80
2023-04-03T10:34:24.961Z,0.70
2023-04-03T10:37:19.830Z,0.60
2023-04-03T10:40:16.496Z,0.87
2023-04-03T10:43:14.014Z,0.93
2023-04-03T10:45:55.045Z,0.70
2023-04-03T10:48:31.193Z,0.50
2023-04-03T10:51:23.773Z,0.67
2023-04-03T10:53:59.449Z,0.67
2023-04-03T10:56:33.330Z,0.70
2023-04-03T10:59:42.632Z,0.70
2023-04-03T11:02:25.292Z,1.00
2023-04-03T11:05:01.837Z,0.53
2023-04-03T11:07:34.874Z,0.70
2023-04-03T11:10:05.848Z,0.40
2023-04-03T11:12:49.790Z,0.70
2023-04-03T11:15:19.007Z,0.53
2023-04-03T11:17:51.958Z,0.80
2023-04-03T11:20:20.489Z,0.73
2023-04-03T11:22:59.795Z,0.70
2023-04-03T11:25:27.405Z,0.90
2023-04-03T11:28:02.782Z,0.97
2023-04-03T11:30:45.757Z,0.70
2023-04-03T11:33:28.440Z,0.50
2023-04-03T11:35:59.787Z,0.60
2023-04-03T11:38:35.863Z,0.63
2023-04-03T11:41:04.431Z,0.50
2023-04-03T11:43:33.059Z,0.70
2023-04-03T11:46:05.492Z,0.80
2023-04-03T11:48:35.931Z,0.57
2023-04-03T11:51:17.385Z,0.70
2023-04-03T11:53:45.140Z,0.80
2023-04-03T11:56:21.180Z,0.60
2023-04-03T11:59:13.184Z,0.53
2023-04-03T12:01:49.350Z,0.60
2023-04-03T12:04:19.387Z,0.80
2023-04-03T12:06:46.504Z,0.70
2023-04-03T12:09:31.544Z,0.70
2023-04-03T12:12:00.878Z,0.73
2023-04-03T12:14:28.767Z,0.40
2023-04-03T12:16:58.845Z,0.60
2023-04-03T12:19:45.965Z,0.40
2023-04-03T12:22:16.299Z,0.67
2023-04-03T12:24:46.414Z,0.67
2023-04-03T12:27:35.960Z,0.60
2023-04-03T12:30:27.679Z,0.60
2023-04-03T12:33:09.638Z,0.80
2023-04-03T12:36:06.072Z,0.70
2023-04-03T12:38:54.361Z,0.53
2023-04-03T12:41:42.882Z,0.60
2023-04-03T12:44:18.812Z,0.50
2023-04-03T12:46:51.420Z,0.60
2023-04-03T12:49:46.142Z,0.47
2023-04-03T12:52:32.600Z,0.67
2023-04-03T12:55:05.060Z,0.43
2023-04-03T12:57:33.746Z,0.50
2023-04-03T13:00:01.105Z,0.60
2023-04-03T13:02:34.870Z,0.47
2023-04-03T13:05:11.084Z,0.60
2023-04-03T13:07:41.929Z,0.50
2023-04-03T13:10:09.110Z,0.60
2023-04-03T13:12:56.261Z,0.50
2023-04-03T13:15:25.821Z,0.50
2023-04-03T13:17:54.662Z,0.60
2023-04-03T13:20:21.719Z,0.60
2023-04-03T13:23:03.570Z,0.60
2023-04-03T13:25:33.361Z,0.60
2023-04-03T13:28:12.488Z,0.80
2023-04-03T13:30:42.204Z,0.80
2023-04-03T13:34:05.184Z,0.77
2023-04-03T13:36:34.875Z,0.77
2023-04-03T13:39:24.934Z,0.77
2023-04-03T13:41:54.969Z,0.63
2023-04-03T13:44:22.262Z,0.90
2023-04-03T13:46:51.057Z,1.63
2023-04-03T13:49:28.402Z,1.70
2023-04-03T13:52:06.754Z,0.93
2023-04-03T13:54:39.641Z,1.30
2023-04-03T13:57:16.096Z,0.80
2023-04-03T13:59:44.493Z,0.90
2023-04-03T14:02:22.874Z,1.20
2023-04-03T14:05:01.057Z,1.03
2023-04-03T14:07:30.333Z,0.97
2023-04-03T14:09:58.121Z,0.97
2023-04-03T14:12:35.163Z,0.70
2023-04-03T14:15:03.104Z,1.30
2023-04-03T14:17:30.520Z,1.00
2023-04-03T14:19:59.386Z,0.77
2023-04-03T14:22:30.587Z,0.80
2023-04-03T14:24:58.500Z,0.80
2023-04-03T14:27:38.960Z,1.10
2023-04-03T14:30:09.573Z,0.80
2023-04-03T14:32:36.665Z,0.83
2023-04-03T14:35:04.359Z,0.80
2023-04-03T14:37:32.148Z,0.80
2023-04-03T14:40:01.646Z,1.13
2023-04-03T14:42:32.653Z,0.80
2023-04-03T14:45:02.379Z,0.70
2023-04-03T14:47:32.217Z,0.73
2023-04-03T14:50:05.228Z,0.80
2023-04-03T14:52:36.269Z,0.90
2023-04-03T14:55:05.818Z,0.70
2023-04-03T14:57:33.690Z,0.80
2023-04-03T15:00:02.482Z,0.83
2023-04-03T15:02:35.107Z,0.70
2023-04-03T15:05:05.219Z,1.07
2023-04-03T15:07:36.089Z,0.97
2023-04-03T15:10:15.384Z,0.90
2023-04-03T15:12:42.869Z,0.70
2023-04-03T15:15:10.942Z,0.90
2023-04-03T15:17:38.395Z,1.23
2023-04-03T15:20:18.035Z,1.70
2023-04-03T15:22:45.162Z,1.83
2023-04-03T15:25:12.574Z,0.87
2023-04-03T15:27:40.094Z,1.60
2023-04-03T15:30:09.619Z,1.77
2023-04-03T15:32:36.732Z,0.80
2023-04-03T15:35:04.405Z,1.43
2023-04-03T15:37:31.984Z,1.00
2023-04-03T15:39:59.973Z,1.13
2023-04-03T15:42:26.964Z,1.10
2023-04-03T15:44:54.310Z,0.60
2023-04-03T15:47:21.377Z,0.90
2023-04-03T15:49:48.685Z,1.20
2023-04-03T15:52:15.660Z,0.53
2023-04-03T15:54:43.022Z,0.80
2023-04-03T15:57:10.052Z,1.10
2023-04-03T15:59:37.456Z,1.20
2023-04-03T16:02:06.632Z,0.77
2023-04-03T16:04:34.264Z,1.00
2023-04-03T16:07:05.045Z,1.00
2023-04-03T16:09:33.866Z,0.80
2023-04-03T16:12:01.719Z,1.10
2023-04-03T16:14:31.283Z,1.80
2023-04-03T16:17:01.674Z,1.20
2023-04-03T16:19:30.790Z,0.80
2023-04-03T16:21:57.983Z,1.03
2023-04-03T16:24:25.307Z,1.20
2023-04-03T16:26:54.387Z,1.00
2023-04-03T16:29:21.784Z,1.07
2023-04-03T16:31:49.353Z,0.87
2023-04-03T16:34:17.109Z,0.80
2023-04-03T16:36:44.228Z,0.70
2023-04-03T16:39:11.670Z,0.70
2023-04-03T16:41:38.953Z,1.00
2023-04-03T16:44:08.460Z,0.80
2023-04-03T16:46:35.826Z,1.10
2023-04-03T16:49:03.564Z,1.00
2023-04-03T16:51:30.970Z,1.10
2023-04-03T16:53:58.238Z,1.20
2023-04-03T16:56:27.723Z,0.83
2023-04-03T16:58:55.500Z,0.97
2023-04-03T17:01:23.383Z,1.17
2023-04-03T17:03:50.875Z,0.90
2023-04-03T17:06:19.910Z,0.90
2023-04-03T17:08:48.857Z,0.87
2023-04-03T17:11:28.064Z,1.00
2023-04-03T17:13:55.359Z,0.93
2023-04-03T17:16:23.126Z,0.80
2023-04-03T17:18:50.523Z,1.00
2023-04-03T17:21:18.220Z,1.03
2023-04-03T17:23:48.360Z,0.70
2023-04-03T17:26:15.856Z,1.03
2023-04-03T17:28:44.791Z,1.00
2023-04-03T17:31:12.663Z,0.73
2023-04-03T17:33:40.087Z,0.90
2023-04-03T17:36:08.050Z,0.80
2023-04-03T17:38:35.439Z,0.97
2023-04-03T17:41:05.861Z,1.80
2023-04-03T17:43:33.914Z,1.40
2023-04-03T17:46:05.809Z,0.63
2023-04-03T17:48:34.322Z,0.80
2023-04-03T17:51:06.312Z,0.80
2023-04-03T17:53:33.673Z,0.60
2023-04-03T17:56:16.121Z,0.70
2023-04-03T17:58:44.119Z,1.00
2023-04-03T18:01:13.696Z,1.13
2023-04-03T18:03:41.959Z,1.00
2023-04-03T18:06:12.075Z,0.70
2023-04-03T18:09:03.949Z,0.90
2023-04-03T18:11:31.274Z,0.80
2023-04-03T18:14:01.810Z,0.87
2023-04-03T18:16:29.943Z,0.87
2023-04-03T18:19:06.970Z,0.80
2023-04-03T18:21:46.034Z,1.10
2023-04-03T18:24:16.277Z,0.80
2023-04-03T18:26:44.583Z,0.87
2023-04-03T18:29:12.371Z,0.70
2023-04-03T18:31:42.369Z,1.17
2023-04-03T18:34:09.804Z,1.00
2023-04-03T18:36:36.887Z,1.10
2023-04-03T18:39:04.297Z,0.97
2023-04-03T18:41:33.116Z,1.03
2023-04-03T18:44:02.401Z,1.47
2023-04-03T18:46:29.666Z,1.30
2023-04-03T18:48:57.915Z,1.33
2023-04-03T18:51:25.703Z,1.30
2023-04-03T18:53:53.133Z,1.37
2023-04-03T18:56:20.236Z,1.70
2023-04-03T18:58:47.504Z,1.57
2023-04-03T19:01:15.406Z,1.67
2023-04-03T19:03:43.054Z,1.30
2023-04-03T19:06:10.252Z,1.30
2023-04-03T19:08:37.618Z,1.00
2023-04-03T19:11:04.966Z,1.33
2023-04-03T19:13:32.681Z,1.27
2023-04-03T19:16:00.205Z,1.30
2023-04-03T19:18:28.077Z,1.33
2023-04-03T19:20:56.600Z,0.90
2023-04-03T19:23:24.759Z,1.30
2023-04-03T19:26:03.056Z,1.43
2023-04-03T19:28:30.719Z,1.37
2023-04-03T19:30:59.294Z,1.50
2023-04-03T19:33:27.170Z,1.60
2023-04-03T19:35:54.813Z,1.50
2023-04-03T19:38:22.239Z,2.40
2023-04-03T19:40:49.447Z,3.47
2023-04-03T19:43:17.232Z,3.20
2023-04-03T19:45:46.075Z,1.50
2023-04-03T19:48:13.687Z,1.83
2023-04-03T19:50:41.139Z,2.10
2023-04-03T19:53:14.545Z,1.47
2023-04-03T19:55:41.721Z,1.40
2023-04-03T19:58:09.048Z,1.20
2023-04-03T20:00:36.300Z,1.60
2023-04-03T20:03:03.736Z,1.63
2023-04-03T20:05:30.950Z,1.03
2023-04-03T20:07:58.220Z,1.50
2023-04-03T20:10:25.833Z,1.27
2023-04-03T20:12:53.149Z,1.20
2023-04-03T20:15:20.237Z,1.30
2023-04-03T20:17:47.646Z,1.00
2023-04-03T20:20:14.780Z,1.20
2023-04-03T20:22:42.379Z,1.77
2023-04-03T20:25:12.344Z,1.83
2023-04-03T20:27:41.109Z,1.63
2023-04-03T20:30:12.128Z,2.10
2023-04-03T20:32:39.715Z,1.30
2023-04-03T20:35:07.302Z,1.10
2023-04-03T20:37:36.110Z,0.90
2023-04-03T20:40:04.122Z,1.17
2023-04-03T20:42:31.577Z,1.00
2023-04-03T20:44:58.533Z,0.87
2023-04-03T20:47:26.106Z,1.00
2023-04-03T20:49:53.830Z,1.20
2023-04-03T20:52:21.564Z,1.40
2023-04-03T20:54:48.522Z,1.70
2023-04-03T20:57:15.906Z,1.70
2023-04-03T20:59:43.787Z,1.23
2023-04-03T21:02:11.452Z,1.70
2023-04-03T21:04:46.442Z,1.30
2023-04-03T21:07:51.156Z,1.50
2023-04-03T21:10:55.237Z,1.60
2023-04-03T21:14:01.260Z,1.57
2023-04-03T21:16:28.182Z,1.43
2023-04-03T21:19:08.579Z,1.60
2023-04-03T21:21:37.180Z,1.03
2023-04-03T21:24:06.795Z,1.40
2023-04-03T21:26:34.390Z,1.60
2023-04-03T21:29:02.081Z,1.00
2023-04-03T21:31:54.373Z,1.03
2023-04-03T21:34:22.473Z,1.20
2023-04-03T21:36:50.063Z,1.40
2023-04-03T21:39:17.528Z,0.70
2023-04-03T21:41:44.585Z,1.23
2023-04-03T21:44:11.855Z,1.30
2023-04-03T21:46:38.875Z,1.27
2023-04-03T21:49:07.440Z,1.27
2023-04-03T21:51:35.376Z,1.40
2023-04-03T21:54:02.745Z,1.50
2023-04-03T21:56:31.422Z,1.13
2023-04-03T21:59:01.572Z,1.40
2023-04-03T22:01:28.869Z,1.90
2023-04-03T22:03:59.455Z,1.57
2023-04-03T22:06:26.762Z,2.10
2023-04-03T22:08:54.158Z,1.60
2023-04-03T22:11:23.059Z,1.80
2023-04-03T22:13:55.341Z,1.20
2023-04-03T22:16:23.547Z,1.53
2023-04-03T22:18:55.062Z,1.30
2023-04-03T22:21:22.459Z,1.07
2023-04-03T22:23:49.862Z,1.00
2023-04-03T22:26:16.882Z,1.20
2023-04-03T22:28:46.198Z,1.00
2023-04-03T22:31:14.454Z,0.90
2023-04-03T22:33:43.506Z,1.13
2023-04-03T22:36:12.009Z,1.30
2023-04-03T22:38:39.696Z,1.20
2023-04-03T22:41:08.173Z,1.30
2023-04-03T22:43:36.630Z,1.10
2023-04-03T22:46:05.368Z,1.40
2023-04-03T22:48:33.546Z,0.83
2023-04-03T22:51:01.631Z,1.10
2023-04-03T22:53:29.146Z,1.10
2023-04-03T22:56:00.522Z,1.20
2023-04-03T22:58:28.876Z,1.17
2023-04-03T23:01:04.846Z,1.10
2023-04-03T23:03:32.600Z,0.90
2023-04-03T23:06:01.495Z,1.10
2023-04-03T23:08:30.307Z,1.10
2023-04-03T23:10:58.425Z,1.17
2023-04-03T23:13:26.315Z,0.97
